createdAt,value
2017-09-27T00:02:54.158Z,13.01
2017-09-27T00:07:50.087Z,12.98
2017-09-27T00:12:46.491Z,13.03
2017-09-27T00:17:42.590Z,12.97
2017-09-27T00:22:38.546Z,13.01
2017-09-27T00:27:35.092Z,13.05
2017-09-27T00:32:30.684Z,13.01
2017-09-27T00:37:26.338Z,13.05
2017-09-27T00:42:22.380Z,13.04
2017-09-27T00:47:18.330Z,13.04
2017-09-27T00:52:15.760Z,13.05
2017-09-27T00:57:13.327Z,13.09
2017-09-27T01:02:08.408Z,13.04
2017-09-27T01:07:05.500Z,13.12
2017-09-27T01:12:00.926Z,13.16
2017-09-27T01:16:57.732Z,13.09
2017-09-27T01:21:53.464Z,13.04
2017-09-27T01:26:49.669Z,13.00
2017-09-27T01:31:45.543Z,12.98
2017-09-27T01:36:41.330Z,12.97
2017-09-27T01:41:37.499Z,13.03
2017-09-27T01:46:34.352Z,12.98
2017-09-27T01:51:30.810Z,12.98
2017-09-27T01:56:26.733Z,13.04
2017-09-27T02:01:23.899Z,13.03
2017-09-27T02:06:19.554Z,13.04
2017-09-27T02:11:15.609Z,13.05
2017-09-27T02:16:11.364Z,13.04
2017-09-27T02:21:07.467Z,13.08
2017-09-27T02:26:03.320Z,13.18
2017-09-27T02:31:01.143Z,13.11
2017-09-27T02:35:56.467Z,13.12
2017-09-27T02:40:53.356Z,13.22
2017-09-27T02:45:48.946Z,13.19
2017-09-27T02:50:44.860Z,13.18
2017-09-27T02:55:40.776Z,13.23
2017-09-27T03:00:36.896Z,13.28
2017-09-27T03:05:32.789Z,13.27
2017-09-27T03:10:28.508Z,13.30
2017-09-27T03:15:24.048Z,13.20
2017-09-27T03:20:20.245Z,13.18
2017-09-27T03:25:16.300Z,13.23
2017-09-27T03:30:12.025Z,13.22
2017-09-27T03:35:08.020Z,13.41
2017-09-27T03:40:03.920Z,13.50
2017-09-27T03:45:00.805Z,13.38
2017-09-27T03:49:56.440Z,13.44
2017-09-27T03:54:52.329Z,13.49
2017-09-27T03:59:48.278Z,13.63
2017-09-27T04:04:45.306Z,13.68
2017-09-27T04:09:40.923Z,13.49
2017-09-27T04:14:36.773Z,13.42
2017-09-27T04:19:32.424Z,13.35
2017-09-27T04:24:30.194Z,13.28
2017-09-27T04:29:25.376Z,13.23
2017-09-27T04:34:21.389Z,13.18
2017-09-27T04:39:19.040Z,13.15
2017-09-27T04:44:14.624Z,13.27
2017-09-27T04:49:11.452Z,13.16
2017-09-27T04:54:07.869Z,13.28
2017-09-27T04:59:03.741Z,13.22
2017-09-27T05:04:00.621Z,13.15
2017-09-27T05:08:55.864Z,13.12
2017-09-27T05:13:52.156Z,13.13
2017-09-27T05:18:48.689Z,13.12
2017-09-27T05:23:44.535Z,13.05
2017-09-27T05:28:40.523Z,13.00
2017-09-27T05:33:36.399Z,13.05
2017-09-27T05:38:32.179Z,13.05
2017-09-27T05:43:27.737Z,13.04
2017-09-27T05:48:24.590Z,13.05
2017-09-27T05:53:21.299Z,13.08
2017-09-27T05:58:16.726Z,13.05
2017-09-27T06:03:12.212Z,13.13
2017-09-27T06:08:08.952Z,13.18
2017-09-27T06:13:04.963Z,13.15
2017-09-27T06:18:00.850Z,13.19
2017-09-27T06:22:56.945Z,13.16
2017-09-27T06:27:53.298Z,13.20
2017-09-27T06:32:49.294Z,13.18
2017-09-27T06:37:45.085Z,13.19
2017-09-27T06:42:41.936Z,13.13
2017-09-27T06:47:38.553Z,13.22
2017-09-27T06:52:34.893Z,13.28
2017-09-27T06:57:32.282Z,13.27
2017-09-27T07:02:29.053Z,13.37
2017-09-27T07:07:25.468Z,13.41
2017-09-27T07:12:21.699Z,13.49
2017-09-27T07:17:18.450Z,13.60
2017-09-27T07:22:14.179Z,13.56
2017-09-27T07:27:11.145Z,13.65
2017-09-27T07:32:07.741Z,13.78
2017-09-27T07:37:03.342Z,13.71
2017-09-27T07:41:59.271Z,13.81
2017-09-27T07:46:55.030Z,13.77
2017-09-27T07:51:51.257Z,13.87
2017-09-27T07:56:47.359Z,14.00
2017-09-27T08:01:43.543Z,14.15
2017-09-27T08:06:39.467Z,14.07
2017-09-27T08:11:35.330Z,14.26
2017-09-27T08:16:31.316Z,14.29
2017-09-27T08:21:27.307Z,14.40
2017-09-27T08:26:24.534Z,14.62
2017-09-27T08:31:20.812Z,14.54
2017-09-27T08:36:17.083Z,14.68
2017-09-27T08:41:12.676Z,14.60
2017-09-27T08:46:10.369Z,14.84
2017-09-27T08:51:07.314Z,15.09
2017-09-27T08:56:04.330Z,15.55
2017-09-27T09:01:00.777Z,15.72
2017-09-27T09:05:56.907Z,15.82
2017-09-27T09:10:54.058Z,15.92
2017-09-27T09:15:50.560Z,16.16
2017-09-27T09:20:47.352Z,16.46
2017-09-27T09:25:42.736Z,16.46
2017-09-27T09:30:39.086Z,16.83
2017-09-27T09:35:34.901Z,17.09
2017-09-27T09:40:31.775Z,17.23
2017-09-27T09:45:27.673Z,17.33
2017-09-27T09:50:23.549Z,17.38
2017-09-27T09:55:20.308Z,17.26
2017-09-27T10:00:16.360Z,17.51
2017-09-27T10:05:12.771Z,17.39
2017-09-27T10:10:08.770Z,17.74
2017-09-27T10:15:05.140Z,18.19
2017-09-27T10:20:01.150Z,18.43
2017-09-27T10:24:57.601Z,18.49
2017-09-27T10:29:54.216Z,18.34
2017-09-27T10:34:50.083Z,18.49
2017-09-27T10:39:46.944Z,18.47
2017-09-27T10:44:43.548Z,18.77
2017-09-27T10:49:40.832Z,19.11
2017-09-27T10:54:37.600Z,19.85
2017-09-27T10:59:34.452Z,20.04
2017-09-27T11:04:31.191Z,20.48
2017-09-27T11:09:27.708Z,20.92
2017-09-27T11:14:24.167Z,21.00
2017-09-27T11:19:20.722Z,20.82
2017-09-27T11:24:16.580Z,20.70
2017-09-27T11:29:12.451Z,20.74
2017-09-27T11:34:08.192Z,20.99
2017-09-27T11:39:04.473Z,21.37
2017-09-27T11:44:01.048Z,20.34
2017-09-27T11:48:56.590Z,20.19
2017-09-27T11:53:53.554Z,20.51
2017-09-27T11:58:48.754Z,20.22
2017-09-27T12:03:44.513Z,20.36
2017-09-27T12:08:40.377Z,20.48
2017-09-27T12:13:36.262Z,20.78
2017-09-27T12:18:33.021Z,20.67
2017-09-27T12:23:29.147Z,20.47
2017-09-27T12:28:25.332Z,19.84
2017-09-27T12:33:20.503Z,19.96
2017-09-27T12:38:16.253Z,20.07
2017-09-27T12:43:11.780Z,20.04
2017-09-27T12:48:07.511Z,19.96
2017-09-27T12:53:04.334Z,19.96
2017-09-27T12:58:00.198Z,19.86
2017-09-27T13:02:55.761Z,19.73
2017-09-27T13:07:53.575Z,19.77
2017-09-27T13:12:50.545Z,19.89
2017-09-27T13:17:47.236Z,19.89
2017-09-27T13:22:42.758Z,19.74
2017-09-27T13:27:38.721Z,19.69
2017-09-27T13:32:34.989Z,19.73
2017-09-27T13:37:31.060Z,19.63
2017-09-27T13:42:28.053Z,19.59
2017-09-27T13:47:23.861Z,19.52
2017-09-27T13:52:19.486Z,19.47
2017-09-27T13:57:15.869Z,19.55
2017-09-27T14:02:12.686Z,19.69
2017-09-27T14:07:09.525Z,19.82
2017-09-27T14:12:05.185Z,19.86
2017-09-27T14:17:01.025Z,19.82
2017-09-27T14:21:57.946Z,19.92
2017-09-27T14:26:53.432Z,19.88
2017-09-27T14:31:49.260Z,19.86
2017-09-27T14:36:45.513Z,19.82
2017-09-27T14:41:42.422Z,19.89
2017-09-27T14:46:38.462Z,19.94
2017-09-27T14:51:35.638Z,20.03
2017-09-27T14:56:31.442Z,20.00
2017-09-27T15:01:28.455Z,19.94
2017-09-27T15:06:25.330Z,19.84
2017-09-27T15:11:22.185Z,19.88
2017-09-27T15:16:18.859Z,20.00
2017-09-27T15:21:15.651Z,19.95
2017-09-27T15:26:11.200Z,19.96
2017-09-27T15:31:07.003Z,19.92
2017-09-27T15:36:02.923Z,19.74
2017-09-27T15:40:58.512Z,19.51
2017-09-27T15:45:55.213Z,19.49
2017-09-27T15:50:50.829Z,19.39
2017-09-27T15:55:46.174Z,19.34
2017-09-27T16:00:42.026Z,19.26
2017-09-27T16:05:37.799Z,19.19
2017-09-27T16:10:33.979Z,19.00
2017-09-27T16:15:30.813Z,18.93
2017-09-27T16:20:26.375Z,18.71
2017-09-27T16:25:22.982Z,18.60
2017-09-27T16:30:20.143Z,18.52
2017-09-27T16:35:15.641Z,18.41
2017-09-27T16:40:12.291Z,18.28
2017-09-27T16:45:09.871Z,18.18
2017-09-27T16:50:06.364Z,17.94
2017-09-27T16:55:01.729Z,17.94
2017-09-27T16:59:57.617Z,17.79
2017-09-27T17:04:53.729Z,17.68
2017-09-27T17:09:49.359Z,17.48
2017-09-27T17:14:45.132Z,17.45
2017-09-27T17:19:41.188Z,17.44
2017-09-27T17:24:37.708Z,17.26
2017-09-27T17:29:33.554Z,17.20
2017-09-27T17:34:29.196Z,17.02
2017-09-27T17:39:24.825Z,17.04
2017-09-27T17:44:20.460Z,16.81
2017-09-27T17:49:16.119Z,16.68
2017-09-27T17:54:12.340Z,16.56
2017-09-27T17:59:08.155Z,16.64
2017-09-27T18:04:04.139Z,16.53
2017-09-27T18:09:00.023Z,16.39
2017-09-27T18:13:55.863Z,16.28
2017-09-27T18:18:51.538Z,16.12
2017-09-27T18:23:47.323Z,16.04
2017-09-27T18:28:43.200Z,15.90
2017-09-27T18:33:39.018Z,15.95
2017-09-27T18:38:34.844Z,15.75
2017-09-27T18:43:30.633Z,15.79
2017-09-27T18:48:26.496Z,15.73
2017-09-27T18:53:23.454Z,15.75
2017-09-27T18:58:19.142Z,15.68
2017-09-27T19:03:16.006Z,15.52
2017-09-27T19:08:11.479Z,15.49
2017-09-27T19:13:07.250Z,15.52
2017-09-27T19:18:03.051Z,15.46
2017-09-27T19:22:58.943Z,15.36
2017-09-27T19:27:54.888Z,15.36
2017-09-27T19:32:50.682Z,15.27
2017-09-27T19:37:47.637Z,15.25
2017-09-27T19:42:44.096Z,15.14
2017-09-27T19:47:40.504Z,15.17
2017-09-27T19:52:36.090Z,15.00
2017-09-27T19:57:33.710Z,14.96
2017-09-27T20:02:30.977Z,14.94
2017-09-27T20:07:26.450Z,14.89
2017-09-27T20:12:21.979Z,14.88
2017-09-27T20:17:17.771Z,14.84
2017-09-27T20:22:13.748Z,14.84
2017-09-27T20:27:09.363Z,14.77
2017-09-27T20:32:05.366Z,14.81
2017-09-27T20:37:02.379Z,14.92
2017-09-27T20:41:57.499Z,14.88
2017-09-27T20:46:54.364Z,14.70
2017-09-27T20:51:49.904Z,14.65
2017-09-27T20:56:48.404Z,14.54
2017-09-27T21:01:43.706Z,14.54
2017-09-27T21:06:39.748Z,14.55
2017-09-27T21:11:36.768Z,14.45
2017-09-27T21:16:32.501Z,14.37
2017-09-27T21:21:28.249Z,14.29
2017-09-27T21:26:24.550Z,14.26
2017-09-27T21:31:21.296Z,14.17
2017-09-27T21:36:16.666Z,14.11
2017-09-27T21:41:12.353Z,13.99
2017-09-27T21:46:08.177Z,14.03
2017-09-27T21:51:03.813Z,13.95
2017-09-27T21:55:59.898Z,13.77
2017-09-27T22:00:55.830Z,13.89
2017-09-27T22:05:51.604Z,13.78
2017-09-27T22:10:47.331Z,13.77
2017-09-27T22:15:44.674Z,13.85
2017-09-27T22:20:40.154Z,13.89
2017-09-27T22:25:37.952Z,13.89
2017-09-27T22:30:35.179Z,13.86
2017-09-27T22:35:31.317Z,13.65
2017-09-27T22:40:27.487Z,13.54
2017-09-27T22:45:23.179Z,13.59
2017-09-27T22:50:18.729Z,13.56
2017-09-27T22:55:15.294Z,13.37
2017-09-27T23:00:12.129Z,13.28
2017-09-27T23:05:07.501Z,13.33
2017-09-27T23:10:03.352Z,13.25
2017-09-27T23:14:58.929Z,13.27
2017-09-27T23:19:55.086Z,13.35
2017-09-27T23:24:51.795Z,13.38
2017-09-27T23:29:47.393Z,13.19
2017-09-27T23:34:43.178Z,13.11
2017-09-27T23:39:39.653Z,13.04
2017-09-27T23:44:36.281Z,13.04
2017-09-27T23:49:32.236Z,13.03
2017-09-27T23:54:28.230Z,12.94
2017-09-27T23:59:23.966Z,12.93
